Time;durP1;ratioP1;P1;durP2;ratioP2;P2;SDS_P1;SDS_P2;PMS_P1;PMS_P2;Temp;Humidity;BMP_temperature;BMP_pressure;BME280_temperature;BME280_humidity;BME280_pressure;Samples;Min_cycle;Max_cycle;Signal;HPM_P1;HPM_P2
2023/06/05 00:02:00;;;;;;;5.50;3.08;;;;;;;14.21;100.00;102073.81;4988385;28;20030;-60
2023/06/05 00:04:25;;;;;;;3.75;2.53;;;;;;;14.16;99.62;102064.09;4988122;28;20144;-60
2023/06/05 00:06:51;;;;;;;4.63;2.80;;;;;;;14.14;99.91;102072.69;4988414;28;20018;-60
2023/06/05 00:09:17;;;;;;;5.03;2.47;;;;;;;14.08;99.82;102075.97;4988309;28;20030;-59
2023/06/05 00:11:42;;;;;;;4.10;2.80;;;;;;;14.05;99.80;102074.13;4988057;28;20050;-59
2023/06/05 00:14:08;;;;;;;6.53;2.55;;;;;;;14.05;100.00;102078.44;4987795;28;20033;-60
2023/06/05 00:16:34;;;;;;;5.05;2.80;;;;;;;13.99;100.00;102073.91;4988524;28;20014;-61
2023/06/05 00:19:00;;;;;;;4.32;3.20;;;;;;;13.93;100.00;102076.28;4988658;28;20033;-58
2023/06/05 00:21:25;;;;;;;3.90;2.80;;;;;;;13.87;100.00;102074.31;4987963;28;20145;-60
2023/06/05 00:23:51;;;;;;;4.03;2.80;;;;;;;13.82;100.00;102075.88;4988104;28;20101;-60
2023/06/05 00:26:16;;;;;;;3.45;2.80;;;;;;;13.78;100.00;102074.88;4987491;28;20077;-60
2023/06/05 00:28:41;;;;;;;3.58;2.55;;;;;;;13.76;100.00;102065.22;4988142;28;20675;-60
2023/06/05 00:31:07;;;;;;;3.45;2.70;;;;;;;13.69;100.00;102070.19;4987954;28;20100;-60
2023/06/05 00:33:32;;;;;;;4.97;2.88;;;;;;;13.66;100.00;102067.47;4987890;28;20022;-59
2023/06/05 00:35:58;;;;;;;6.80;3.13;;;;;;;13.62;100.00;102056.84;4987475;28;20121;-60
2023/06/05 00:38:23;;;;;;;9.98;2.95;;;;;;;13.62;100.00;102064.66;4987348;28;20107;-60
2023/06/05 00:40:48;;;;;;;5.97;2.80;;;;;;;13.62;100.00;102069.88;4988158;28;20034;-60
2023/06/05 00:43:13;;;;;;;3.78;2.80;;;;;;;13.55;100.00;102056.63;4987600;28;20367;-59
2023/06/05 00:45:39;;;;;;;4.75;3.05;;;;;;;13.53;100.00;102060.00;4987677;28;20476;-60
2023/06/05 00:48:05;;;;;;;6.07;3.33;;;;;;;13.51;100.00;102065.09;4985833;28;20026;-61
2023/06/05 00:50:32;;;;;;;5.28;2.85;;;;;;;13.48;100.00;102062.38;4987214;28;20592;-58
2023/06/05 00:52:58;;;;;;;6.28;3.20;;;;;;;13.42;100.00;102062.16;4987418;28;20088;-60
2023/06/05 00:55:25;;;;;;;6.90;2.97;;;;;;;13.41;100.00;102053.47;4988031;28;20018;-60
2023/06/05 00:57:51;;;;;;;5.32;3.05;;;;;;;13.38;100.00;102063.75;4988264;28;20028;-60
2023/06/05 01:00:16;;;;;;;3.35;2.90;;;;;;;13.34;100.00;102069.66;4986463;28;20023;-59
2023/06/05 01:02:42;;;;;;;6.10;3.08;;;;;;;13.32;100.00;102066.09;4985177;28;20023;-60
2023/06/05 01:05:08;;;;;;;6.45;3.47;;;;;;;13.25;100.00;102067.56;4987872;28;20026;-59
2023/06/05 01:07:37;;;;;;;5.05;2.67;;;;;;;13.21;100.00;102068.25;4988497;28;20033;-60
2023/06/05 01:10:05;;;;;;;4.18;3.28;;;;;;;13.17;100.00;102067.25;4987302;28;20708;-60
2023/06/05 01:12:40;;;;;;;3.97;3.10;;;;;;;13.15;100.00;102065.44;4987657;28;20062;-60
2023/06/05 01:15:07;;;;;;;5.70;3.05;;;;;;;13.10;100.00;102057.41;4987199;28;20030;-60
2023/06/05 01:17:33;;;;;;;5.55;3.40;;;;;;;13.09;100.00;102060.84;4987884;28;20020;-60
2023/06/05 01:20:09;;;;;;;3.60;3.05;;;;;;;13.07;100.00;102062.50;4987351;28;20117;-60
2023/06/05 01:22:37;;;;;;;10.57;3.47;;;;;;;13.02;100.00;102058.81;4987673;28;20113;-59
2023/06/05 01:25:04;;;;;;;4.53;3.97;;;;;;;13.00;100.00;102044.84;4987639;28;20022;-60
2023/06/05 01:27:42;;;;;;;5.38;3.10;;;;;;;12.92;100.00;102052.34;4987631;28;20498;-61
2023/06/05 01:30:13;;;;;;;6.15;2.90;;;;;;;12.88;100.00;102059.13;4987154;28;20026;-60
2023/06/05 01:32:47;;;;;;;3.83;3.03;;;;;;;12.87;100.00;102049.56;4987635;28;20441;-60
2023/06/05 01:35:16;;;;;;;5.93;3.90;;;;;;;12.84;100.00;102059.84;4986723;28;20050;-60
2023/06/05 01:37:46;;;;;;;6.60;3.70;;;;;;;12.77;100.00;102063.88;4987412;28;20030;-60
2023/06/05 01:40:14;;;;;;;5.28;3.00;;;;;;;12.73;100.00;102055.06;4987656;28;20459;-59
2023/06/05 01:42:42;;;;;;;6.32;3.70;;;;;;;12.68;100.00;102053.97;4987072;28;20109;-61
2023/06/05 01:45:09;;;;;;;3.58;3.25;;;;;;;12.66;100.00;102055.63;4986856;28;20022;-61
2023/06/05 01:47:38;;;;;;;5.22;3.40;;;;;;;12.61;100.00;102055.41;4987143;28;20117;-60
2023/06/05 01:50:05;;;;;;;5.18;3.45;;;;;;;12.58;100.00;102049.19;4986762;28;20049;-60
2023/06/05 01:52:32;;;;;;;3.92;3.63;;;;;;;12.54;100.00;102044.72;4986105;28;20037;-61
2023/06/05 01:55:01;;;;;;;7.60;4.45;;;;;;;12.52;100.00;102041.16;4987042;28;20437;-60
2023/06/05 01:57:27;;;;;;;5.68;3.70;;;;;;;12.47;100.00;102044.44;4982088;28;20562;-60
2023/06/05 01:59:53;;;;;;;5.72;3.65;;;;;;;12.43;100.00;102045.09;4988929;28;20030;-60
2023/06/05 02:02:19;;;;;;;4.85;3.65;;;;;;;12.39;100.00;102044.91;4990493;28;20110;-61
2023/06/05 02:04:47;;;;;;;6.15;4.05;;;;;;;12.34;100.00;102036.94;4990780;28;20097;-60
2023/06/05 02:07:12;;;;;;;6.80;3.80;;;;;;;12.30;100.00;102037.59;4989922;28;20482;-59
2023/06/05 02:09:38;;;;;;;5.03;3.92;;;;;;;12.27;100.00;102033.16;4990617;28;20061;-60
2023/06/05 02:12:05;;;;;;;5.53;4.32;;;;;;;12.23;100.00;102034.72;4990404;28;20056;-60
2023/06/05 02:14:35;;;;;;;7.78;4.25;;;;;;;12.20;100.00;102034.59;4990771;28;20144;-59
2023/06/05 02:17:05;;;;;;;6.30;4.05;;;;;;;12.17;100.00;102030.97;4989980;28;20040;-60
2023/06/05 02:19:31;;;;;;;6.80;4.13;;;;;;;12.15;100.00;102035.22;4990986;28;20050;-60
2023/06/05 02:21:57;;;;;;;5.40;4.13;;;;;;;12.10;100.00;102027.22;4990226;28;20161;-60
2023/06/05 02:24:22;;;;;;;4.35;3.70;;;;;;;12.07;100.00;102034.84;4990583;28;20019;-59
2023/06/05 02:26:48;;;;;;;4.90;4.03;;;;;;;12.08;100.00;102027.13;4989785;28;20481;-60
2023/06/05 02:29:13;;;;;;;7.15;4.68;;;;;;;12.07;100.00;102027.06;4990121;28;20031;-60
2023/06/05 02:31:39;;;;;;;5.30;4.35;;;;;;;12.07;100.00;102032.25;4990167;28;20022;-61
2023/06/05 02:34:04;;;;;;;5.18;4.18;;;;;;;12.03;100.00;102027.72;4990229;28;20015;-60
2023/06/05 02:36:32;;;;;;;7.05;4.35;;;;;;;11.99;100.00;102025.00;4987824;28;20053;-60
2023/06/05 02:38:58;;;;;;;6.22;4.35;;;;;;;11.98;100.00;102023.19;4990144;28;20482;-60
2023/06/05 02:41:24;;;;;;;7.05;4.43;;;;;;;11.95;100.00;102024.78;4990057;28;20018;-60
2023/06/05 02:43:50;;;;;;;6.78;4.88;;;;;;;11.91;100.00;102028.06;4990119;28;20034;-60
2023/06/05 02:46:15;;;;;;;4.97;4.50;;;;;;;11.83;100.00;102014.72;4989191;28;20035;-61
2023/06/05 02:48:40;;;;;;;9.60;5.57;;;;;;;11.76;100.00;102017.03;4990146;28;20451;-60
2023/06/05 02:51:06;;;;;;;7.10;5.22;;;;;;;11.74;100.00;102016.09;4989599;28;20030;-61
2023/06/05 02:53:32;;;;;;;5.65;4.90;;;;;;;11.69;100.00;102015.00;4989722;28;20027;-59
2023/06/05 02:55:59;;;;;;;7.07;4.63;;;;;;;11.66;100.00;102009.63;4988943;28;20153;-60
2023/06/05 02:58:24;;;;;;;7.07;5.10;;;;;;;11.63;100.00;102013.00;4989758;28;20080;-61
2023/06/05 03:00:50;;;;;;;6.60;5.25;;;;;;;11.61;100.00;102018.94;4989325;28;20034;-60
2023/06/05 03:03:16;;;;;;;5.50;4.82;;;;;;;11.59;100.00;102017.97;4989733;28;20027;-61
2023/06/05 03:05:44;;;;;;;8.65;5.00;;;;;;;11.57;100.00;102017.00;4989425;28;20034;-60
2023/06/05 03:08:10;;;;;;;5.97;5.05;;;;;;;11.53;100.00;102014.25;4989110;28;20026;-60
2023/06/05 03:10:35;;;;;;;9.35;5.65;;;;;;;11.51;100.00;102015.88;4989407;28;20080;-60
2023/06/05 03:13:00;;;;;;;5.28;4.70;;;;;;;11.50;100.00;102014.13;4988661;28;20530;-60
2023/06/05 03:15:27;;;;;;;9.18;5.22;;;;;;;11.46;100.00;102017.38;4987081;28;20034;-61
2023/06/05 03:17:52;;;;;;;7.72;5.10;;;;;;;11.42;100.00;102015.47;4987585;28;20030;-61
2023/06/05 03:20:19;;;;;;;6.43;5.10;;;;;;;11.39;100.00;102016.22;4987407;28;20014;-61
2023/06/05 03:22:44;;;;;;;6.30;5.55;;;;;;;11.36;100.00;102016.06;4986977;28;20482;-60
2023/06/05 03:25:09;;;;;;;8.05;5.00;;;;;;;11.34;100.00;102014.22;4987807;28;20403;-61
2023/06/05 03:27:36;;;;;;;8.88;5.63;;;;;;;11.31;100.00;102016.66;4986800;28;20497;-59
2023/06/05 03:30:01;;;;;;;8.23;6.15;;;;;;;11.27;100.00;102006.16;4987888;28;20472;-58
2023/06/05 03:32:27;;;;;;;10.65;5.47;;;;;;;11.23;100.00;102004.22;4989079;28;20053;-60
2023/06/05 03:34:52;;;;;;;8.55;5.63;;;;;;;11.26;100.00;102004.34;4988628;28;20046;-60
2023/06/05 03:37:18;;;;;;;9.93;6.05;;;;;;;11.25;100.00;102007.78;4989455;28;20024;-60
2023/06/05 03:39:43;;;;;;;8.32;6.05;;;;;;;11.24;100.00;102003.38;4988467;28;20037;-60
2023/06/05 03:42:10;;;;;;;7.07;5.90;;;;;;;11.22;100.00;102002.44;4988747;28;20077;-60
2023/06/05 03:44:36;;;;;;;6.70;5.88;;;;;;;11.18;100.00;101995.31;4988625;28;20037;-60
2023/06/05 03:47:02;;;;;;;6.97;5.90;;;;;;;11.18;100.00;102000.50;4989131;28;20034;-59
2023/06/05 03:49:28;;;;;;;8.55;5.95;;;;;;;11.18;100.00;102000.50;4988442;28;20088;-60
2023/06/05 03:52:00;;;;;;;6.82;6.15;;;;;;;11.15;100.00;102005.56;4988495;28;20037;-60
2023/06/05 03:54:26;;;;;;;8.25;6.53;;;;;;;11.12;100.00;102005.38;4988823;28;20030;-61
2023/06/05 03:56:52;;;;;;;7.28;6.25;;;;;;;11.09;100.00;102005.25;4988546;28;20125;-60
2023/06/05 03:59:22;;;;;;;9.07;6.43;;;;;;;11.07;100.00;101997.38;4988774;28;20026;-60
2023/06/05 04:01:47;;;;;;;6.97;6.30;;;;;;;11.05;100.00;102004.22;4988024;28;20036;-60
2023/06/05 04:04:13;;;;;;;7.53;6.30;;;;;;;11.04;100.00;102003.31;4988313;28;20022;-60
2023/06/05 04:06:40;;;;;;;8.75;7.00;;;;;;;11.04;100.00;102003.31;4988481;28;20030;-59
2023/06/05 04:09:10;;;;;;;7.38;6.40;;;;;;;11.07;100.00;102001.69;4987702;28;20034;-59
2023/06/05 04:11:38;;;;;;;7.32;6.47;;;;;;;11.04;100.00;102003.31;4988455;28;20088;-60
2023/06/05 04:14:03;;;;;;;7.78;6.55;;;;;;;11.03;100.00;102001.53;4987695;28;20456;-60
2023/06/05 04:16:29;;;;;;;7.35;6.60;;;;;;;11.02;100.00;101999.78;4988505;28;20020;-60
2023/06/05 04:18:55;;;;;;;8.75;6.68;;;;;;;11.03;100.00;102006.72;4986562;28;20064;-61
2023/06/05 04:21:20;;;;;;;7.93;6.47;;;;;;;11.04;100.00;102003.31;4988277;28;20053;-59
2023/06/05 04:23:45;;;;;;;9.55;7.13;;;;;;;11.05;100.00;102005.09;4987559;28;20034;-60
2023/06/05 04:26:11;;;;;;;11.43;7.63;;;;;;;11.08;100.00;102003.47;4988122;28;20102;-60
2023/06/05 04:28:36;;;;;;;9.07;6.75;;;;;;;11.08;100.00;102014.72;4988064;28;20053;-60
2023/06/05 04:31:02;;;;;;;10.15;7.10;;;;;;;11.10;100.00;102014.81;4987922;28;20482;-60
2023/06/05 04:33:27;;;;;;;7.90;7.10;;;;;;;11.11;100.00;102014.00;4987023;28;20073;-61
2023/06/05 04:35:53;;;;;;;8.63;7.22;;;;;;;11.10;100.00;102012.22;4988337;28;20698;-61
2023/06/05 04:38:20;;;;;;;9.45;8.05;;;;;;;11.12;100.00;102018.34;4988013;28;20034;-61
2023/06/05 04:40:48;;;;;;;8.40;7.32;;;;;;;11.15;100.00;102021.13;4987613;28;20486;-60
2023/06/05 04:43:13;;;;;;;9.25;7.80;;;;;;;11.16;100.00;102020.28;4987481;28;20026;-60
2023/06/05 04:45:39;;;;;;;11.20;7.85;;;;;;;11.21;100.00;102024.00;4987201;28;20030;-61
2023/06/05 04:48:05;;;;;;;8.88;6.75;;;;;;;11.25;100.00;102025.03;4988109;28;20019;-60
2023/06/05 04:50:30;;;;;;;7.70;7.00;;;;;;;11.27;100.00;102020.81;4987856;28;20032;-61
2023/06/05 04:52:56;;;;;;;10.90;8.13;;;;;;;11.32;100.00;102029.72;4987623;28;20114;-60
2023/06/05 04:55:21;;;;;;;7.60;6.88;;;;;;;11.36;100.00;102030.75;4987336;28;20029;-60
2023/06/05 04:57:48;;;;;;;11.32;8.50;;;;;;;11.40;100.00;102028.34;4987355;28;20038;-60
2023/06/05 05:00:14;;;;;;;10.57;8.10;;;;;;;11.40;100.00;102023.16;4987388;28;20064;-60
2023/06/05 05:02:40;;;;;;;9.68;8.48;;;;;;;11.44;100.00;102031.13;4987630;28;20033;-59
2023/06/05 05:05:06;;;;;;;10.57;8.60;;;;;;;11.47;100.00;102024.38;4982673;28;20019;-61
2023/06/05 05:07:31;;;;;;;10.57;7.88;;;;;;;11.51;100.00;102028.00;4987855;28;20031;-61
2023/06/05 05:09:56;;;;;;;9.60;8.70;;;;;;;11.55;100.00;102031.63;4987194;28;20041;-60
2023/06/05 05:12:22;;;;;;;10.88;8.55;;;;;;;11.58;100.00;102027.47;4988230;28;20054;-61
2023/06/05 05:14:47;;;;;;;8.95;8.15;;;;;;;11.64;100.00;102026.84;4987705;28;20031;-60
2023/06/05 05:17:16;;;;;;;8.88;8.05;;;;;;;11.69;100.00;102020.19;4986999;28;20033;-60
2023/06/05 05:19:42;;;;;;;9.35;8.30;;;;;;;11.72;100.00;102016.81;4987009;28;20029;-60
2023/06/05 05:22:07;;;;;;;10.98;9.30;;;;;;;11.79;100.00;102018.88;4987372;28;20466;-60
2023/06/05 05:24:32;;;;;;;10.88;8.93;;;;;;;11.81;100.00;102018.97;4987559;28;20446;-60
2023/06/05 05:26:58;;;;;;;11.07;9.63;;;;;;;11.85;100.00;102029.56;4987703;28;20431;-61
2023/06/05 05:29:24;;;;;;;10.00;9.10;;;;;;;11.91;100.00;102023.75;4986994;28;20022;-61
2023/06/05 05:31:50;;;;;;;9.85;8.85;;;;;;;12.00;100.00;102021.56;4987048;28;20374;-61
2023/06/05 05:34:16;;;;;;;10.10;8.85;;;;;;;12.08;100.00;102018.44;4987086;28;20022;-60
2023/06/05 05:36:42;;;;;;;10.13;9.13;;;;;;;12.17;100.00;102013.69;4991090;28;20029;-60
2023/06/05 05:39:07;;;;;;;8.88;7.97;;;;;;;12.23;100.00;102018.25;4990845;28;20034;-60
2023/06/05 05:41:33;;;;;;;10.10;9.05;;;;;;;12.31;100.00;102015.97;4987147;28;20122;-60
2023/06/05 05:43:58;;;;;;;10.73;9.73;;;;;;;12.39;100.00;102018.94;4991113;28;20394;-61
2023/06/05 05:46:23;;;;;;;10.55;8.60;;;;;;;12.44;100.00;102020.91;4990607;28;20038;-61
2023/06/05 05:48:49;;;;;;;9.35;8.20;;;;;;;12.55;100.00;102021.38;4991149;28;20030;-61
2023/06/05 05:51:14;;;;;;;9.52;8.57;;;;;;;12.63;100.00;102019.06;4990911;28;20224;-61
2023/06/05 05:53:39;;;;;;;10.13;8.90;;;;;;;12.73;100.00;102023.88;4990687;28;20034;-60
2023/06/05 05:56:05;;;;;;;9.60;8.60;;;;;;;12.77;100.00;102018.78;4990790;28;20113;-61
2023/06/05 05:58:31;;;;;;;11.18;8.27;;;;;;;12.92;100.00;102016.81;4990127;28;20030;-59
2023/06/05 06:00:56;;;;;;;16.30;9.27;;;;;;;13.07;100.00;102016.56;4990489;28;20018;-61
2023/06/05 06:03:23;;;;;;;9.82;8.65;;;;;;;13.25;100.00;102031.13;4990151;28;20172;-61
2023/06/05 06:05:48;;;;;;;9.27;8.20;;;;;;;13.39;100.00;102026.47;4991144;28;20575;-61
2023/06/05 06:08:14;;;;;;;10.98;8.60;;;;;;;13.53;100.00;102040.06;4990956;28;20058;-61
2023/06/05 06:10:40;;;;;;;10.18;8.32;;;;;;;13.65;100.00;102037.03;4990376;28;20030;-61
2023/06/05 06:13:05;;;;;;;10.68;8.57;;;;;;;13.80;100.00;102043.66;4990103;28;20033;-61
2023/06/05 06:15:31;;;;;;;10.52;8.60;;;;;;;13.92;100.00;102038.91;4989926;28;20027;-61
2023/06/05 06:17:56;;;;;;;10.15;8.73;;;;;;;14.08;100.00;102042.09;4990493;28;20025;-60
2023/06/05 06:20:22;;;;;;;9.35;8.02;;;;;;;14.23;100.00;102046.09;4989950;28;20022;-61
2023/06/05 06:22:47;;;;;;;9.32;8.32;;;;;;;14.36;100.00;102037.88;4989734;28;20026;-62
2023/06/05 06:25:15;;;;;;;9.90;8.88;;;;;;;14.48;100.00;102036.53;4990047;28;20022;-63
2023/06/05 06:27:48;;;;;;;81.18;19.73;;;;;;;14.57;99.54;102034.22;4990426;28;20486;-62
2023/06/05 06:30:14;;;;;;;10.23;7.70;;;;;;;14.67;98.54;102040.66;4989553;28;20026;-61
2023/06/05 06:32:39;;;;;;;8.13;6.50;;;;;;;14.80;95.64;102034.16;4989486;28;20084;-61
2023/06/05 06:35:06;;;;;;;9.07;8.05;;;;;;;14.96;96.04;102045.13;4989075;28;20057;-62
2023/06/05 06:37:31;;;;;;;8.85;7.60;;;;;;;15.10;96.24;102041.22;4990288;28;20022;-59
2023/06/05 06:39:57;;;;;;;8.57;7.70;;;;;;;15.22;96.01;102047.66;4988934;28;20029;-58
2023/06/05 06:42:22;;;;;;;8.73;7.80;;;;;;;15.29;95.45;102043.56;4989271;28;20113;-59
2023/06/05 06:44:47;;;;;;;8.32;7.45;;;;;;;15.42;94.53;102039.56;4989437;28;20258;-60
2023/06/05 06:47:13;;;;;;;8.18;7.38;;;;;;;15.51;93.87;102039.88;4987400;28;20054;-58
2023/06/05 06:49:41;;;;;;;7.97;7.15;;;;;;;15.63;93.35;102043.69;4986677;28;20029;-59
2023/06/05 06:52:07;;;;;;;9.57;7.30;;;;;;;15.75;92.17;102043.16;4987933;28;20054;-58
2023/06/05 06:54:32;;;;;;;8.57;7.18;;;;;;;15.89;92.72;102046.19;4987920;28;20057;-58
2023/06/05 06:56:59;;;;;;;8.90;7.32;;;;;;;16.03;90.91;102039.66;4987776;28;20561;-59
2023/06/05 06:59:24;;;;;;;9.57;7.35;;;;;;;16.14;90.07;102041.69;4988225;28;20030;-58
2023/06/05 07:02:13;;;;;;;7.38;6.68;;;;;;;16.26;89.64;102051.63;4986607;28;20494;-59
2023/06/05 07:04:41;;;;;;;8.30;7.00;;;;;;;16.29;88.91;102047.38;4985603;28;20053;-59
2023/06/05 07:07:08;;;;;;;7.65;6.80;;;;;;;16.45;88.32;102053.00;4986842;28;20118;-59
2023/06/05 07:09:33;;;;;;;9.98;7.45;;;;;;;16.47;88.58;102056.56;4986708;28;20390;-58
2023/06/05 07:12:04;;;;;;;10.35;7.80;;;;;;;16.52;88.33;102061.88;4986004;28;20026;-59
2023/06/05 07:14:29;;;;;;;;;;;;;;;16.51;87.37;102058.41;4974947;28;20317;-59
2023/06/05 07:16:56;;;;;;;8.50;7.35;;;;;;;16.61;86.11;102064.75;4989024;28;20273;-59
2023/06/05 07:19:21;;;;;;;8.75;7.18;;;;;;;16.67;86.56;102061.44;4976317;28;20022;-59
2023/06/05 07:21:47;;;;;;;7.78;6.97;;;;;;;16.67;86.47;102059.69;4988968;28;20435;-59
2023/06/05 07:24:12;;;;;;;7.13;6.43;;;;;;;16.80;85.92;102063.50;4989196;28;20022;-59
2023/06/05 07:26:37;;;;;;;10.07;7.72;;;;;;;16.96;84.59;102061.28;4988846;28;20030;-60
2023/06/05 07:29:03;;;;;;;7.82;6.82;;;;;;;17.00;85.03;102063.13;4989341;28;20081;-59
2023/06/05 07:31:30;;;;;;;7.63;6.05;;;;;;;17.04;85.27;102059.72;4988668;28;20297;-59
2023/06/05 07:33:55;;;;;;;7.68;6.57;;;;;;;17.11;84.73;102054.66;4989729;28;20128;-60
2023/06/05 07:36:22;;;;;;;11.35;6.93;;;;;;;17.22;83.98;102058.44;4988436;28;20161;-59
2023/06/05 07:38:48;;;;;;;6.85;5.90;;;;;;;17.27;82.79;102064.66;4989506;28;20041;-59
2023/06/05 07:41:13;;;;;;;8.77;6.75;;;;;;;17.36;80.97;102060.50;4988648;28;20386;-59
2023/06/05 07:43:40;;;;;;;6.47;5.88;;;;;;;17.46;80.94;102057.25;4988826;28;20042;-59
2023/06/05 07:46:05;;;;;;;7.57;5.93;;;;;;;17.42;82.00;102060.63;4988607;28;20558;-60
2023/06/05 07:48:31;;;;;;;8.77;6.60;;;;;;;17.47;80.16;102063.34;4989053;28;20054;-59
2023/06/05 07:50:56;;;;;;;9.13;6.63;;;;;;;17.55;82.21;102060.91;4988538;28;20022;-60
2023/06/05 07:53:22;;;;;;;5.63;4.68;;;;;;;17.75;81.43;102063.97;4988117;28;20026;-60
2023/06/05 07:55:48;;;;;;;9.55;5.60;;;;;;;17.85;79.46;102055.44;4988822;28;20498;-60
2023/06/05 07:58:15;;;;;;;10.93;6.55;;;;;;;18.02;79.77;102061.88;4987812;28;20022;-60
2023/06/05 08:00:47;;;;;;;7.70;5.30;;;;;;;18.18;79.22;102058.75;4988673;28;20134;-60
2023/06/05 08:03:19;;;;;;;7.47;6.00;;;;;;;18.36;77.35;102063.50;4988563;28;20022;-60
2023/06/05 08:05:46;;;;;;;6.95;6.18;;;;;;;18.39;77.20;102060.03;4988881;28;20031;-60
2023/06/05 08:08:12;;;;;;;8.95;5.68;;;;;;;18.60;76.27;102061.28;4988171;28;20022;-59
2023/06/05 08:10:37;;;;;;;6.75;6.03;;;;;;;18.67;74.68;102063.13;4988492;28;20052;-60
2023/06/05 08:13:02;;;;;;;6.68;5.68;;;;;;;18.78;74.83;102049.34;4988335;28;20022;-60
2023/06/05 08:15:28;;;;;;;7.30;6.57;;;;;;;18.78;73.80;102054.59;4987968;28;20034;-60
2023/06/05 08:17:53;;;;;;;6.85;5.35;;;;;;;18.91;72.35;102053.03;4987194;28;20014;-59
2023/06/05 08:20:19;;;;;;;6.65;5.38;;;;;;;18.97;70.57;102055.75;4986380;28;20034;-58
2023/06/05 08:22:44;;;;;;;7.03;5.28;;;;;;;19.08;69.71;102048.94;4986297;28;20046;-59
2023/06/05 08:25:10;;;;;;;7.78;6.03;;;;;;;19.18;72.14;102052.63;4986090;28;20105;-59
2023/06/05 08:27:35;;;;;;;6.88;6.15;;;;;;;19.36;73.16;102045.88;4986450;28;20406;-60
2023/06/05 08:30:01;;;;;;;7.82;5.93;;;;;;;19.50;71.69;102048.69;4986957;28;20030;-60
2023/06/05 08:32:26;;;;;;;6.30;5.70;;;;;;;19.48;70.66;102041.66;4987095;28;20030;-60
2023/06/05 08:34:51;;;;;;;8.40;6.15;;;;;;;19.64;70.28;102048.00;4976826;28;20050;-60
2023/06/05 08:37:16;;;;;;;8.13;5.93;;;;;;;19.75;71.13;102035.84;4987638;28;20025;-59
2023/06/05 08:39:44;;;;;;;6.32;5.72;;;;;;;19.96;69.75;102033.47;4987588;28;20315;-60
2023/06/05 08:42:10;;;;;;;7.45;5.20;;;;;;;20.15;70.10;102030.22;4987432;28;20027;-60
2023/06/05 08:44:36;;;;;;;10.00;5.28;;;;;;;20.35;68.26;102026.91;4987505;28;20513;-60
2023/06/05 08:47:02;;;;;;;8.43;6.07;;;;;;;20.32;68.49;102032.16;4988322;28;20109;-60
2023/06/05 08:49:36;;;;;;;6.35;5.20;;;;;;;20.46;69.40;102031.41;4987760;28;20030;-60
2023/06/05 08:52:05;;;;;;;7.78;5.55;;;;;;;20.62;67.00;102025.41;4988344;28;20116;-59
2023/06/05 08:54:38;;;;;;;6.53;5.45;;;;;;;20.69;67.76;102026.34;4987590;28;20084;-60
2023/06/05 08:57:04;;;;;;;5.60;5.10;;;;;;;20.76;65.05;102027.25;4986100;28;20026;-59
2023/06/05 08:59:30;;;;;;;5.97;4.85;;;;;;;20.87;64.87;102029.97;4987559;28;20026;-60
2023/06/05 09:01:56;;;;;;;9.15;5.88;;;;;;;20.99;63.64;102030.09;4987472;28;20022;-60
2023/06/05 09:04:23;;;;;;;7.05;5.63;;;;;;;21.01;63.43;102031.88;4987498;28;20034;-60
2023/06/05 09:06:53;;;;;;;7.15;5.40;;;;;;;21.05;64.57;102025.75;4986761;28;20463;-60
2023/06/05 09:09:19;;;;;;;7.87;4.73;;;;;;;21.19;63.89;102025.88;4983437;28;20023;-60
2023/06/05 09:11:45;;;;;;;8.93;6.18;;;;;;;21.31;63.87;102020.66;4992475;28;20033;-60
2023/06/05 09:14:10;;;;;;;6.78;5.13;;;;;;;21.46;62.84;102019.84;4991357;28;20382;-61
2023/06/05 09:16:37;;;;;;;7.57;5.40;;;;;;;21.54;61.84;102017.25;4991971;28;20026;-60
2023/06/05 09:19:04;;;;;;;10.20;5.65;;;;;;;21.62;62.12;102026.97;4991573;28;20018;-60
2023/06/05 09:21:31;;;;;;;7.30;5.57;;;;;;;21.68;60.39;102019.06;4991627;28;20087;-60
2023/06/05 09:24:16;;;;;;;7.78;6.95;;;;;;;21.75;60.56;102020.84;4991502;28;20022;-61
2023/06/05 09:26:57;;;;;;;6.63;5.90;;;;;;;21.79;58.93;102020.00;4990659;28;20023;-60
2023/06/05 09:29:34;;;;;;;8.32;5.60;;;;;;;21.89;60.52;102027.97;4991661;28;20080;-61
2023/06/05 09:32:03;;;;;;;7.07;5.15;;;;;;;21.85;57.92;102027.09;4991468;28;20030;-61
2023/06/05 09:34:36;;;;;;;10.40;6.60;;;;;;;21.79;57.02;102017.34;4990956;28;20484;-60
2023/06/05 09:37:04;;;;;;;7.38;6.25;;;;;;;21.74;59.47;102011.19;4990436;28;20109;-60
2023/06/05 09:39:31;;;;;;;7.43;5.35;;;;;;;21.85;59.98;102013.00;4985791;28;20034;-60
2023/06/05 09:41:57;;;;;;;6.97;5.65;;;;;;;21.99;59.26;102003.38;4991375;28;20409;-60
2023/06/05 09:44:24;;;;;;;7.60;4.82;;;;;;;22.12;58.85;102013.97;4990149;28;20120;-60
2023/06/05 09:47:01;;;;;;;8.15;6.55;;;;;;;22.15;56.46;102016.59;4990870;28;20473;-60
2023/06/05 09:49:28;;;;;;;9.13;6.50;;;;;;;22.10;56.24;102010.44;4986386;28;20498;-60
2023/06/05 09:51:55;;;;;;;8.85;6.20;;;;;;;22.13;60.29;102006.03;4990583;28;20026;-60
2023/06/05 09:54:22;;;;;;;6.57;5.25;;;;;;;22.30;59.81;102019.28;4990786;28;20022;-60
2023/06/05 09:56:51;;;;;;;7.20;5.50;;;;;;;22.40;59.76;102008.72;4990817;28;20508;-61
2023/06/05 09:59:21;;;;;;;5.80;5.30;;;;;;;;;;4990544;28;20319;-60
2023/06/05 10:01:48;;;;;;;6.10;4.70;;;;;;;22.58;57.59;102012.25;4990095;28;20439;-60
2023/06/05 10:04:16;;;;;;;5.50;4.88;;;;;;;22.72;57.14;102004.38;4990553;28;20069;-61
2023/06/05 10:06:42;;;;;;;6.30;5.65;;;;;;;22.81;56.94;101999.03;4989560;28;20022;-60
2023/06/05 10:09:09;;;;;;;6.20;4.97;;;;;;;22.82;54.83;101999.94;4990058;28;20157;-62
2023/06/05 10:11:35;;;;;;;5.40;4.82;;;;;;;22.91;58.25;102005.22;4989885;28;20486;-61
2023/06/05 10:14:02;;;;;;;4.65;4.10;;;;;;;23.02;60.02;101995.53;4990452;28;20030;-61
2023/06/05 10:16:28;;;;;;;7.72;4.65;;;;;;;23.07;56.51;101989.31;4990650;28;20022;-61
2023/06/05 10:18:55;;;;;;;8.02;4.63;;;;;;;23.18;58.58;101992.81;4990310;28;20026;-61
2023/06/05 10:21:21;;;;;;;6.40;4.97;;;;;;;23.21;53.35;101994.56;4989231;28;20031;-61
2023/06/05 10:23:55;;;;;;;5.40;4.80;;;;;;;23.15;55.34;101998.13;4989445;28;20026;-61
2023/06/05 10:27:15;;;;;;;5.18;4.05;;;;;;;23.25;55.59;101997.22;4988766;28;20045;-60
2023/06/05 10:30:08;;;;;;;5.72;4.00;;;;;;;23.37;53.67;101995.41;4985779;28;20566;-63
2023/06/05 10:32:57;;;;;;;7.25;4.35;;;;;;;23.44;57.83;101993.66;4990146;28;21014;-63
2023/06/05 10:36:00;;;;;;;6.90;4.90;;;;;;;23.51;55.11;101985.69;4989463;28;20050;-63
2023/06/05 10:38:27;;;;;;;5.03;4.10;;;;;;;23.69;56.29;101997.06;4987098;28;20022;-63
2023/06/05 10:40:55;;;;;;;4.97;4.22;;;;;;;23.74;56.67;101992.66;4988578;28;20060;-63
2023/06/05 10:43:28;;;;;;;5.75;3.80;;;;;;;23.83;53.28;101991.72;4985541;28;20085;-63
2023/06/05 10:45:54;;;;;;;6.57;3.90;;;;;;;23.92;55.37;101982.84;4988123;28;20033;-63
2023/06/05 10:48:19;;;;;;;6.35;4.75;;;;;;;23.91;56.48;101980.22;4977135;28;20092;-63
2023/06/05 10:50:45;;;;;;;7.05;4.38;;;;;;;23.98;57.18;101980.13;4987887;28;20390;-64
2023/06/05 10:53:42;;;;;;;4.93;4.45;;;;;;;24.11;53.74;101980.06;4989204;28;20019;-63
2023/06/05 10:56:07;;;;;;;6.18;4.10;;;;;;;24.11;55.21;101980.06;4990262;28;20590;-63
2023/06/05 10:58:33;;;;;;;7.80;4.88;;;;;;;24.04;49.73;101973.94;4989547;28;20022;-63
2023/06/05 11:01:19;;;;;;;6.90;4.20;;;;;;;24.01;52.33;101973.06;4989882;28;20030;-63
2023/06/05 11:03:56;;;;;;;7.53;4.05;;;;;;;24.08;54.92;101967.75;4977055;28;20038;-63
2023/06/05 11:06:21;;;;;;;6.55;3.80;;;;;;;24.29;55.81;101978.19;4989256;28;20526;-63
2023/06/05 11:09:10;;;;;;;3.80;3.38;;;;;;;24.44;55.94;101967.50;4989352;28;20088;-64
2023/06/05 11:12:01;;;;;;;8.50;4.05;;;;;;;24.60;53.63;101962.03;4979472;28;20030;-64
2023/06/05 11:14:46;;;;;;;9.60;3.60;;;;;;;24.59;51.29;101962.94;4989459;28;20022;-63
2023/06/05 11:17:27;;;;;;;7.25;4.22;;;;;;;24.43;49.60;101960.41;4989272;28;20444;-63
2023/06/05 11:19:52;;;;;;;;;;;;;;;24.53;48.97;101955.03;4989896;28;20391;-63
2023/06/05 11:22:18;;;;;;;4.93;3.78;;;;;;;24.44;50.36;101954.25;4988734;28;19909;-63
2023/06/05 11:24:43;;;;;;;4.88;3.10;;;;;;;24.56;53.55;101955.00;4978717;28;20026;-63